sensor_id;sensor_type;location;lat;lon;timestamp;P1;durP1;ratioP1;P2;durP2;ratioP2
61473;SDS011;53694;49.784;30.150;2022-10-31T00:00:49;8.16;;;2.56;;
61473;SDS011;53694;49.784;30.150;2022-10-31T00:01:51;6.35;;;2.50;;
61473;SDS011;53694;49.784;30.150;2022-10-31T00:02:53;7.13;;;2.56;;
61473;SDS011;53694;49.784;30.150;2022-10-31T00:03:55;6.86;;;3.01;;
61473;SDS011;53694;49.784;30.150;2022-10-31T00:04:56;8.85;;;2.61;;
61473;SDS011;53694;49.784;30.150;2022-10-31T00:05:58;8.33;;;2.88;;
61473;SDS011;53694;49.784;30.150;2022-10-31T00:06:59;6.45;;;2.31;;
61473;SDS011;53694;49.784;30.150;2022-10-31T00:08:01;7.57;;;2.21;;
61473;SDS011;53694;49.784;30.150;2022-10-31T00:09:03;6.04;;;1.85;;
61473;SDS011;53694;49.784;30.150;2022-10-31T00:10:06;5.97;;;2.28;;
61473;SDS011;53694;49.784;30.150;2022-10-31T00:11:09;5.63;;;2.08;;
61473;SDS011;53694;49.784;30.150;2022-10-31T00:12:11;5.53;;;2.09;;
61473;SDS011;53694;49.784;30.150;2022-10-31T00:13:13;5.41;;;1.91;;
61473;SDS011;53694;49.784;30.150;2022-10-31T00:14:15;7.40;;;2.72;;
61473;SDS011;53694;49.784;30.150;2022-10-31T00:15:16;5.68;;;1.96;;
61473;SDS011;53694;49.784;30.150;2022-10-31T00:16:23;6.59;;;2.43;;
61473;SDS011;53694;49.784;30.150;2022-10-31T00:17:25;7.74;;;2.98;;
61473;SDS011;53694;49.784;30.150;2022-10-31T00:18:27;6.71;;;2.36;;
61473;SDS011;53694;49.784;30.150;2022-10-31T00:19:28;7.98;;;2.38;;
61473;SDS011;53694;49.784;30.150;2022-10-31T00:20:30;7.49;;;2.49;;
61473;SDS011;53694;49.784;30.150;2022-10-31T00:21:32;9.06;;;3.09;;
61473;SDS011;53694;49.784;30.150;2022-10-31T00:22:34;6.32;;;2.36;;
61473;SDS011;53694;49.784;30.150;2022-10-31T00:23:35;8.09;;;3.21;;
61473;SDS011;53694;49.784;30.150;2022-10-31T00:24:37;9.57;;;2.61;;
61473;SDS011;53694;49.784;30.150;2022-10-31T00:25:38;7.92;;;2.56;;
61473;SDS011;53694;49.784;30.150;2022-10-31T00:26:41;6.17;;;2.23;;
61473;SDS011;53694;49.784;30.150;2022-10-31T00:27:42;7.59;;;2.21;;
61473;SDS011;53694;49.784;30.150;2022-10-31T00:28:44;4.91;;;2.08;;
61473;SDS011;53694;49.784;30.150;2022-10-31T00:29:45;6.76;;;2.05;;
61473;SDS011;53694;49.784;30.150;2022-10-31T00:30:47;7.17;;;2.20;;
61473;SDS011;53694;49.784;30.150;2022-10-31T00:31:48;6.49;;;2.20;;
61473;SDS011;53694;49.784;30.150;2022-10-31T00:32:50;7.16;;;2.06;;
61473;SDS011;53694;49.784;30.150;2022-10-31T00:33:51;4.99;;;1.82;;
61473;SDS011;53694;49.784;30.150;2022-10-31T00:34:53;5.38;;;1.85;;
61473;SDS011;53694;49.784;30.150;2022-10-31T00:35:55;6.42;;;2.00;;
61473;SDS011;53694;49.784;30.150;2022-10-31T00:36:56;6.63;;;2.21;;
61473;SDS011;53694;49.784;30.150;2022-10-31T00:37:58;4.98;;;1.86;;
61473;SDS011;53694;49.784;30.150;2022-10-31T00:38:59;4.92;;;2.17;;
61473;SDS011;53694;49.784;30.150;2022-10-31T00:40:01;7.24;;;2.57;;
61473;SDS011;53694;49.784;30.150;2022-10-31T00:41:03;6.41;;;2.45;;
61473;SDS011;53694;49.784;30.150;2022-10-31T00:42:04;8.63;;;2.87;;
61473;SDS011;53694;49.784;30.150;2022-10-31T00:43:06;12.75;;;5.34;;
61473;SDS011;53694;49.784;30.150;2022-10-31T00:44:07;10.28;;;2.92;;
61473;SDS011;53694;49.784;30.150;2022-10-31T00:45:09;8.04;;;2.32;;
61473;SDS011;53694;49.784;30.150;2022-10-31T00:46:12;6.52;;;2.11;;
61473;SDS011;53694;49.784;30.150;2022-10-31T00:47:15;8.18;;;2.36;;
61473;SDS011;53694;49.784;30.150;2022-10-31T00:48:17;5.14;;;2.09;;
61473;SDS011;53694;49.784;30.150;2022-10-31T00:49:18;6.13;;;2.01;;
61473;SDS011;53694;49.784;30.150;2022-10-31T00:50:20;4.64;;;2.00;;
61473;SDS011;53694;49.784;30.150;2022-10-31T00:51:21;5.04;;;1.84;;
61473;SDS011;53694;49.784;30.150;2022-10-31T00:52:23;6.69;;;2.08;;
61473;SDS011;53694;49.784;30.150;2022-10-31T00:53:24;6.57;;;1.98;;
61473;SDS011;53694;49.784;30.150;2022-10-31T00:54:26;5.24;;;1.83;;
61473;SDS011;53694;49.784;30.150;2022-10-31T00:55:27;5.06;;;1.68;;
61473;SDS011;53694;49.784;30.150;2022-10-31T00:56:29;6.19;;;1.83;;
61473;SDS011;53694;49.784;30.150;2022-10-31T00:57:31;5.86;;;1.76;;
61473;SDS011;53694;49.784;30.150;2022-10-31T00:58:32;7.91;;;2.10;;
61473;SDS011;53694;49.784;30.150;2022-10-31T00:59:34;7.81;;;2.42;;
61473;SDS011;53694;49.784;30.150;2022-10-31T01:00:36;7.51;;;2.82;;
61473;SDS011;53694;49.784;30.150;2022-10-31T01:01:38;9.46;;;3.47;;
61473;SDS011;53694;49.784;30.150;2022-10-31T01:02:39;5.76;;;2.49;;
61473;SDS011;53694;49.784;30.150;2022-10-31T01:03:41;6.90;;;2.71;;
61473;SDS011;53694;49.784;30.150;2022-10-31T01:04:42;8.51;;;2.54;;
61473;SDS011;53694;49.784;30.150;2022-10-31T01:05:44;7.66;;;2.16;;
61473;SDS011;53694;49.784;30.150;2022-10-31T01:06:45;5.96;;;1.92;;
61473;SDS011;53694;49.784;30.150;2022-10-31T01:07:47;8.06;;;1.93;;
61473;SDS011;53694;49.784;30.150;2022-10-31T01:08:49;5.89;;;1.89;;
61473;SDS011;53694;49.784;30.150;2022-10-31T01:09:50;5.60;;;1.93;;
61473;SDS011;53694;49.784;30.150;2022-10-31T01:12:09;5.22;;;1.81;;
61473;SDS011;53694;49.784;30.150;2022-10-31T01:13:11;5.25;;;2.52;;
61473;SDS011;53694;49.784;30.150;2022-10-31T01:14:12;6.94;;;1.89;;
61473;SDS011;53694;49.784;30.150;2022-10-31T01:15:17;6.07;;;2.04;;
61473;SDS011;53694;49.784;30.150;2022-10-31T01:16:23;5.76;;;1.94;;
61473;SDS011;53694;49.784;30.150;2022-10-31T01:17:26;5.95;;;2.19;;
61473;SDS011;53694;49.784;30.150;2022-10-31T01:18:28;7.83;;;2.59;;
61473;SDS011;53694;49.784;30.150;2022-10-31T01:19:30;7.32;;;2.31;;
61473;SDS011;53694;49.784;30.150;2022-10-31T01:20:31;8.98;;;2.55;;
61473;SDS011;53694;49.784;30.150;2022-10-31T01:21:33;11.06;;;2.81;;
61473;SDS011;53694;49.784;30.150;2022-10-31T01:22:35;7.01;;;2.97;;
61473;SDS011;53694;49.784;30.150;2022-10-31T01:23:36;8.67;;;3.06;;
61473;SDS011;53694;49.784;30.150;2022-10-31T01:24:38;11.19;;;3.39;;
61473;SDS011;53694;49.784;30.150;2022-10-31T01:25:40;8.44;;;3.21;;
61473;SDS011;53694;49.784;30.150;2022-10-31T01:26:41;8.41;;;2.31;;
61473;SDS011;53694;49.784;30.150;2022-10-31T01:27:43;8.56;;;2.78;;
61473;SDS011;53694;49.784;30.150;2022-10-31T01:30:02;8.29;;;2.14;;
61473;SDS011;53694;49.784;30.150;2022-10-31T01:31:06;8.18;;;2.62;;
61473;SDS011;53694;49.784;30.150;2022-10-31T01:32:09;8.89;;;2.39;;
61473;SDS011;53694;49.784;30.150;2022-10-31T01:33:10;6.10;;;2.34;;
61473;SDS011;53694;49.784;30.150;2022-10-31T01:34:12;12.08;;;2.80;;
61473;SDS011;53694;49.784;30.150;2022-10-31T01:35:16;8.74;;;2.82;;
61473;SDS011;53694;49.784;30.150;2022-10-31T01:36:19;8.06;;;2.59;;
61473;SDS011;53694;49.784;30.150;2022-10-31T01:37:22;8.15;;;3.02;;
61473;SDS011;53694;49.784;30.150;2022-10-31T01:38:24;7.45;;;3.03;;
61473;SDS011;53694;49.784;30.150;2022-10-31T01:39:25;9.14;;;3.21;;
61473;SDS011;53694;49.784;30.150;2022-10-31T01:40:29;7.41;;;3.18;;
61473;SDS011;53694;49.784;30.150;2022-10-31T01:41:32;9.77;;;3.26;;
61473;SDS011;53694;49.784;30.150;2022-10-31T01:42:35;9.54;;;3.08;;
61473;SDS011;53694;49.784;30.150;2022-10-31T01:43:54;10.15;;;3.42;;
61473;SDS011;53694;49.784;30.150;2022-10-31T01:44:59;9.93;;;3.57;;
61473;SDS011;53694;49.784;30.150;2022-10-31T01:46:02;8.44;;;3.08;;
61473;SDS011;53694;49.784;30.150;2022-10-31T01:47:05;5.92;;;2.93;;
61473;SDS011;53694;49.784;30.150;2022-10-31T01:48:11;9.66;;;2.69;;
61473;SDS011;53694;49.784;30.150;2022-10-31T01:50:23;6.64;;;2.67;;
61473;SDS011;53694;49.784;30.150;2022-10-31T01:51:34;8.07;;;2.43;;
61473;SDS011;53694;49.784;30.150;2022-10-31T01:52:40;7.39;;;2.38;;
61473;SDS011;53694;49.784;30.150;2022-10-31T01:53:43;6.17;;;2.11;;
61473;SDS011;53694;49.784;30.150;2022-10-31T01:54:57;5.22;;;2.15;;
61473;SDS011;53694;49.784;30.150;2022-10-31T01:55:58;7.08;;;2.52;;
61473;SDS011;53694;49.784;30.150;2022-10-31T01:57:01;7.30;;;2.25;;
61473;SDS011;53694;49.784;30.150;2022-10-31T01:58:13;5.95;;;2.29;;
61473;SDS011;53694;49.784;30.150;2022-10-31T01:59:17;7.43;;;2.44;;
61473;SDS011;53694;49.784;30.150;2022-10-31T02:00:22;6.53;;;2.04;;
61473;SDS011;53694;49.784;30.150;2022-10-31T02:01:24;6.13;;;2.22;;
61473;SDS011;53694;49.784;30.150;2022-10-31T02:02:26;7.15;;;2.51;;
61473;SDS011;53694;49.784;30.150;2022-10-31T02:03:30;7.59;;;2.20;;
61473;SDS011;53694;49.784;30.150;2022-10-31T02:04:33;8.05;;;2.22;;
61473;SDS011;53694;49.784;30.150;2022-10-31T02:05:35;7.17;;;2.55;;
61473;SDS011;53694;49.784;30.150;2022-10-31T02:06:38;5.46;;;2.09;;
61473;SDS011;53694;49.784;30.150;2022-10-31T02:07:51;9.68;;;1.96;;
61473;SDS011;53694;49.784;30.150;2022-10-31T02:08:56;6.29;;;2.07;;
61473;SDS011;53694;49.784;30.150;2022-10-31T02:10:00;4.89;;;1.91;;
61473;SDS011;53694;49.784;30.150;2022-10-31T02:11:03;6.10;;;1.78;;
61473;SDS011;53694;49.784;30.150;2022-10-31T02:12:06;5.72;;;1.96;;
61473;SDS011;53694;49.784;30.150;2022-10-31T02:13:11;7.13;;;2.16;;
61473;SDS011;53694;49.784;30.150;2022-10-31T02:14:14;5.53;;;1.66;;
61473;SDS011;53694;49.784;30.150;2022-10-31T02:15:15;6.66;;;2.21;;
61473;SDS011;53694;49.784;30.150;2022-10-31T02:16:17;4.19;;;1.56;;
61473;SDS011;53694;49.784;30.150;2022-10-31T02:17:19;4.52;;;1.80;;
61473;SDS011;53694;49.784;30.150;2022-10-31T02:18:20;5.12;;;1.64;;
61473;SDS011;53694;49.784;30.150;2022-10-31T02:19:30;4.69;;;1.86;;
61473;SDS011;53694;49.784;30.150;2022-10-31T02:23:56;6.48;;;2.06;;
61473;SDS011;53694;49.784;30.150;2022-10-31T02:27:02;4.51;;;1.75;;
61473;SDS011;53694;49.784;30.150;2022-10-31T02:28:18;5.85;;;1.67;;
61473;SDS011;53694;49.784;30.150;2022-10-31T02:32:27;7.17;;;2.04;;
61473;SDS011;53694;49.784;30.150;2022-10-31T02:35:03;6.59;;;1.94;;
61473;SDS011;53694;49.784;30.150;2022-10-31T02:37:25;5.56;;;1.43;;
61473;SDS011;53694;49.784;30.150;2022-10-31T02:42:28;6.25;;;1.92;;
61473;SDS011;53694;49.784;30.150;2022-10-31T02:45:08;7.38;;;2.87;;
61473;SDS011;53694;49.784;30.150;2022-10-31T02:47:17;7.70;;;2.32;;
61473;SDS011;53694;49.784;30.150;2022-10-31T02:48:29;5.25;;;1.89;;
61473;SDS011;53694;49.784;30.150;2022-10-31T02:49:33;6.16;;;1.68;;
61473;SDS011;53694;49.784;30.150;2022-10-31T02:50:38;6.82;;;1.74;;
61473;SDS011;53694;49.784;30.150;2022-10-31T02:51:43;6.08;;;1.73;;
61473;SDS011;53694;49.784;30.150;2022-10-31T02:52:49;5.09;;;1.79;;
61473;SDS011;53694;49.784;30.150;2022-10-31T02:53:50;5.27;;;1.67;;
61473;SDS011;53694;49.784;30.150;2022-10-31T02:54:51;6.09;;;1.76;;
61473;SDS011;53694;49.784;30.150;2022-10-31T02:55:58;8.09;;;3.20;;
61473;SDS011;53694;49.784;30.150;2022-10-31T02:57:03;8.06;;;1.56;;
61473;SDS011;53694;49.784;30.150;2022-10-31T02:58:08;5.51;;;1.81;;
61473;SDS011;53694;49.784;30.150;2022-10-31T02:59:12;6.42;;;1.76;;
61473;SDS011;53694;49.784;30.150;2022-10-31T03:00:14;7.03;;;1.70;;
61473;SDS011;53694;49.784;30.150;2022-10-31T03:01:21;7.29;;;2.29;;
61473;SDS011;53694;49.784;30.150;2022-10-31T03:08:35;7.75;;;1.96;;
61473;SDS011;53694;49.784;30.150;2022-10-31T03:10:05;6.58;;;1.76;;
61473;SDS011;53694;49.784;30.150;2022-10-31T03:11:11;5.68;;;1.47;;
61473;SDS011;53694;49.784;30.150;2022-10-31T03:13:23;6.08;;;1.58;;
61473;SDS011;53694;49.784;30.150;2022-10-31T22:12:13;15.65;;;6.56;;
61473;SDS011;53694;49.784;30.150;2022-10-31T22:13:15;12.54;;;6.51;;
61473;SDS011;53694;49.784;30.150;2022-10-31T22:14:16;12.07;;;6.36;;
61473;SDS011;53694;49.784;30.150;2022-10-31T22:15:18;13.74;;;6.44;;
61473;SDS011;53694;49.784;30.150;2022-10-31T22:16:20;14.84;;;6.27;;
61473;SDS011;53694;49.784;30.150;2022-10-31T22:17:22;13.94;;;6.28;;
61473;SDS011;53694;49.784;30.150;2022-10-31T22:18:24;14.21;;;6.30;;
61473;SDS011;53694;49.784;30.150;2022-10-31T22:19:25;13.56;;;6.23;;
61473;SDS011;53694;49.784;30.150;2022-10-31T22:20:27;15.94;;;6.04;;
61473;SDS011;53694;49.784;30.150;2022-10-31T22:21:29;13.25;;;6.45;;
61473;SDS011;53694;49.784;30.150;2022-10-31T22:22:31;13.01;;;6.19;;
61473;SDS011;53694;49.784;30.150;2022-10-31T22:23:33;15.52;;;6.69;;
61473;SDS011;53694;49.784;30.150;2022-10-31T22:24:35;12.07;;;6.25;;
61473;SDS011;53694;49.784;30.150;2022-10-31T22:25:36;15.16;;;6.66;;
61473;SDS011;53694;49.784;30.150;2022-10-31T22:26:38;12.33;;;6.68;;
61473;SDS011;53694;49.784;30.150;2022-10-31T22:27:40;14.90;;;7.11;;
61473;SDS011;53694;49.784;30.150;2022-10-31T22:28:42;15.49;;;7.06;;
61473;SDS011;53694;49.784;30.150;2022-10-31T22:29:46;16.99;;;7.16;;
61473;SDS011;53694;49.784;30.150;2022-10-31T22:30:47;17.86;;;7.52;;
61473;SDS011;53694;49.784;30.150;2022-10-31T22:31:49;12.48;;;7.04;;
61473;SDS011;53694;49.784;30.150;2022-10-31T22:32:51;13.53;;;7.13;;
61473;SDS011;53694;49.784;30.150;2022-10-31T22:33:53;14.21;;;7.13;;
61473;SDS011;53694;49.784;30.150;2022-10-31T22:34:55;14.98;;;7.37;;
61473;SDS011;53694;49.784;30.150;2022-10-31T22:36:01;15.03;;;7.01;;
61473;SDS011;53694;49.784;30.150;2022-10-31T22:37:02;15.24;;;7.49;;
61473;SDS011;53694;49.784;30.150;2022-10-31T22:38:03;12.49;;;7.49;;
61473;SDS011;53694;49.784;30.150;2022-10-31T22:39:05;15.10;;;6.80;;
61473;SDS011;53694;49.784;30.150;2022-10-31T22:40:08;15.55;;;6.85;;
61473;SDS011;53694;49.784;30.150;2022-10-31T22:41:11;13.38;;;6.59;;
61473;SDS011;53694;49.784;30.150;2022-10-31T22:42:17;13.20;;;6.74;;
61473;SDS011;53694;49.784;30.150;2022-10-31T22:43:19;14.54;;;7.07;;
61473;SDS011;53694;49.784;30.150;2022-10-31T22:44:20;14.22;;;7.29;;
61473;SDS011;53694;49.784;30.150;2022-10-31T22:45:22;14.88;;;7.51;;
61473;SDS011;53694;49.784;30.150;2022-10-31T22:46:29;13.84;;;6.73;;
61473;SDS011;53694;49.784;30.150;2022-10-31T22:47:29;14.63;;;6.92;;
61473;SDS011;53694;49.784;30.150;2022-10-31T22:48:31;15.79;;;6.54;;
61473;SDS011;53694;49.784;30.150;2022-10-31T22:49:35;14.31;;;6.71;;
61473;SDS011;53694;49.784;30.150;2022-10-31T22:50:37;16.47;;;7.40;;
61473;SDS011;53694;49.784;30.150;2022-10-31T22:51:39;15.03;;;7.56;;
61473;SDS011;53694;49.784;30.150;2022-10-31T22:52:41;16.85;;;7.75;;
61473;SDS011;53694;49.784;30.150;2022-10-31T22:53:42;13.66;;;7.30;;
61473;SDS011;53694;49.784;30.150;2022-10-31T22:54:44;13.15;;;7.02;;
61473;SDS011;53694;49.784;30.150;2022-10-31T22:55:48;15.43;;;7.86;;
61473;SDS011;53694;49.784;30.150;2022-10-31T22:56:50;12.37;;;6.52;;
61473;SDS011;53694;49.784;30.150;2022-10-31T22:57:51;11.71;;;7.06;;
61473;SDS011;53694;49.784;30.150;2022-10-31T22:58:53;14.31;;;7.32;;
61473;SDS011;53694;49.784;30.150;2022-10-31T22:59:55;13.97;;;6.71;;
61473;SDS011;53694;49.784;30.150;2022-10-31T23:00:57;13.01;;;6.83;;
61473;SDS011;53694;49.784;30.150;2022-10-31T23:01:59;11.61;;;6.43;;
61473;SDS011;53694;49.784;30.150;2022-10-31T23:03:00;15.88;;;7.86;;
61473;SDS011;53694;49.784;30.150;2022-10-31T23:04:02;16.69;;;7.74;;
61473;SDS011;53694;49.784;30.150;2022-10-31T23:05:04;13.18;;;6.73;;
61473;SDS011;53694;49.784;30.150;2022-10-31T23:06:06;15.19;;;7.10;;
61473;SDS011;53694;49.784;30.150;2022-10-31T23:07:10;13.99;;;6.78;;
61473;SDS011;53694;49.784;30.150;2022-10-31T23:08:11;15.57;;;7.23;;
61473;SDS011;53694;49.784;30.150;2022-10-31T23:09:14;16.16;;;7.67;;
61473;SDS011;53694;49.784;30.150;2022-10-31T23:10:18;13.76;;;7.22;;
61473;SDS011;53694;49.784;30.150;2022-10-31T23:12:24;13.71;;;7.26;;
61473;SDS011;53694;49.784;30.150;2022-10-31T23:13:26;16.83;;;8.09;;
61473;SDS011;53694;49.784;30.150;2022-10-31T23:14:27;13.34;;;6.91;;
61473;SDS011;53694;49.784;30.150;2022-10-31T23:15:29;16.76;;;7.39;;
61473;SDS011;53694;49.784;30.150;2022-10-31T23:16:31;18.91;;;7.59;;
61473;SDS011;53694;49.784;30.150;2022-10-31T23:17:32;11.78;;;6.89;;
61473;SDS011;53694;49.784;30.150;2022-10-31T23:18:34;14.84;;;7.34;;
61473;SDS011;53694;49.784;30.150;2022-10-31T23:19:36;15.36;;;7.74;;
61473;SDS011;53694;49.784;30.150;2022-10-31T23:20:38;15.24;;;7.36;;
61473;SDS011;53694;49.784;30.150;2022-10-31T23:21:40;15.08;;;7.45;;
61473;SDS011;53694;49.784;30.150;2022-10-31T23:22:43;14.87;;;8.08;;
61473;SDS011;53694;49.784;30.150;2022-10-31T23:23:44;17.99;;;9.13;;
61473;SDS011;53694;49.784;30.150;2022-10-31T23:24:46;17.39;;;9.06;;
61473;SDS011;53694;49.784;30.150;2022-10-31T23:25:48;16.91;;;9.38;;
61473;SDS011;53694;49.784;30.150;2022-10-31T23:26:54;16.13;;;7.51;;
61473;SDS011;53694;49.784;30.150;2022-10-31T23:27:54;13.62;;;7.79;;
61473;SDS011;53694;49.784;30.150;2022-10-31T23:28:55;12.65;;;6.64;;
61473;SDS011;53694;49.784;30.150;2022-10-31T23:29:57;15.57;;;7.68;;
61473;SDS011;53694;49.784;30.150;2022-10-31T23:30:59;13.95;;;7.32;;
61473;SDS011;53694;49.784;30.150;2022-10-31T23:32:01;12.35;;;6.89;;
61473;SDS011;53694;49.784;30.150;2022-10-31T23:33:03;14.95;;;6.97;;
61473;SDS011;53694;49.784;30.150;2022-10-31T23:34:04;14.27;;;6.73;;
61473;SDS011;53694;49.784;30.150;2022-10-31T23:35:07;14.16;;;7.19;;
61473;SDS011;53694;49.784;30.150;2022-10-31T23:36:10;14.28;;;6.98;;
61473;SDS011;53694;49.784;30.150;2022-10-31T23:37:12;15.71;;;7.62;;
61473;SDS011;53694;49.784;30.150;2022-10-31T23:38:14;16.91;;;7.62;;
61473;SDS011;53694;49.784;30.150;2022-10-31T23:39:15;13.45;;;7.29;;
61473;SDS011;53694;49.784;30.150;2022-10-31T23:40:17;14.71;;;7.64;;
61473;SDS011;53694;49.784;30.150;2022-10-31T23:41:19;11.41;;;6.61;;
61473;SDS011;53694;49.784;30.150;2022-10-31T23:42:20;15.18;;;6.77;;
61473;SDS011;53694;49.784;30.150;2022-10-31T23:43:22;18.85;;;7.73;;
61473;SDS011;53694;49.784;30.150;2022-10-31T23:44:24;16.13;;;7.77;;
61473;SDS011;53694;49.784;30.150;2022-10-31T23:45:25;13.70;;;7.39;;
61473;SDS011;53694;49.784;30.150;2022-10-31T23:46:27;14.53;;;7.14;;
61473;SDS011;53694;49.784;30.150;2022-10-31T23:47:28;15.76;;;7.64;;
61473;SDS011;53694;49.784;30.150;2022-10-31T23:48:30;15.89;;;7.94;;
61473;SDS011;53694;49.784;30.150;2022-10-31T23:49:31;15.56;;;7.97;;
61473;SDS011;53694;49.784;30.150;2022-10-31T23:50:33;18.83;;;7.35;;
61473;SDS011;53694;49.784;30.150;2022-10-31T23:51:35;15.91;;;8.13;;
61473;SDS011;53694;49.784;30.150;2022-10-31T23:52:37;14.09;;;7.62;;
61473;SDS011;53694;49.784;30.150;2022-10-31T23:53:38;17.01;;;8.13;;
61473;SDS011;53694;49.784;30.150;2022-10-31T23:54:40;15.52;;;7.71;;
61473;SDS011;53694;49.784;30.150;2022-10-31T23:55:42;12.69;;;7.01;;
61473;SDS011;53694;49.784;30.150;2022-10-31T23:56:43;12.81;;;6.91;;
61473;SDS011;53694;49.784;30.150;2022-10-31T23:57:45;15.75;;;7.46;;
61473;SDS011;53694;49.784;30.150;2022-10-31T23:58:46;14.21;;;7.65;;
61473;SDS011;53694;49.784;30.150;2022-10-31T23:59:48;15.84;;;7.69;;
